sensor_id;sensor_type;location;lat;lon;timestamp;temperature;humidity
31661;DHT22;18267;52.234;7.444;2023-01-28T00:02:25;3.80;99.90
31661;DHT22;18267;52.234;7.444;2023-01-28T00:05:23;3.80;99.90
31661;DHT22;18267;52.234;7.444;2023-01-28T00:07:52;4.00;99.90
31661;DHT22;18267;52.234;7.444;2023-01-28T00:10:20;4.00;99.90
31661;DHT22;18267;52.234;7.444;2023-01-28T00:12:57;4.00;99.90
31661;DHT22;18267;52.234;7.444;2023-01-28T00:15:29;4.00;99.90
31661;DHT22;18267;52.234;7.444;2023-01-28T00:17:56;4.00;99.90
31661;DHT22;18267;52.234;7.444;2023-01-28T00:20:32;4.00;99.90
31661;DHT22;18267;52.234;7.444;2023-01-28T00:22:57;4.10;99.90
31661;DHT22;18267;52.234;7.444;2023-01-28T00:25:23;4.00;99.90
31661;DHT22;18267;52.234;7.444;2023-01-28T00:27:50;4.00;99.90
31661;DHT22;18267;52.234;7.444;2023-01-28T00:30:16;4.00;99.90
31661;DHT22;18267;52.234;7.444;2023-01-28T00:32:43;4.00;99.90
31661;DHT22;18267;52.234;7.444;2023-01-28T00:35:10;4.00;99.90
31661;DHT22;18267;52.234;7.444;2023-01-28T00:37:36;4.00;99.90
31661;DHT22;18267;52.234;7.444;2023-01-28T00:40:02;4.00;99.90
31661;DHT22;18267;52.234;7.444;2023-01-28T00:42:29;4.00;99.90
31661;DHT22;18267;52.234;7.444;2023-01-28T00:44:55;4.00;99.90
31661;DHT22;18267;52.234;7.444;2023-01-28T00:47:24;3.90;99.90
31661;DHT22;18267;52.234;7.444;2023-01-28T00:49:50;4.00;99.90
31661;DHT22;18267;52.234;7.444;2023-01-28T00:52:16;4.00;99.90
31661;DHT22;18267;52.234;7.444;2023-01-28T00:54:42;4.10;99.90
31661;DHT22;18267;52.234;7.444;2023-01-28T00:57:08;4.00;99.90
31661;DHT22;18267;52.234;7.444;2023-01-28T00:59:36;3.90;99.90
31661;DHT22;18267;52.234;7.444;2023-01-28T01:02:09;3.90;99.90
31661;DHT22;18267;52.234;7.444;2023-01-28T01:04:39;3.80;99.90
31661;DHT22;18267;52.234;7.444;2023-01-28T01:07:08;3.70;99.90
31661;DHT22;18267;52.234;7.444;2023-01-28T01:09:46;3.70;99.90
31661;DHT22;18267;52.234;7.444;2023-01-28T01:12:13;3.80;99.90
31661;DHT22;18267;52.234;7.444;2023-01-28T01:15:17;3.50;99.90
31661;DHT22;18267;52.234;7.444;2023-01-28T01:18:09;3.40;99.90
31661;DHT22;18267;52.234;7.444;2023-01-28T01:21:17;3.40;99.90
31661;DHT22;18267;52.234;7.444;2023-01-28T01:23:58;3.50;99.90
31661;DHT22;18267;52.234;7.444;2023-01-28T01:26:33;3.60;99.90
31661;DHT22;18267;52.234;7.444;2023-01-28T01:29:02;3.60;99.90
31661;DHT22;18267;52.234;7.444;2023-01-28T01:31:50;3.50;99.90
31661;DHT22;18267;52.234;7.444;2023-01-28T01:34:16;3.40;99.90
31661;DHT22;18267;52.234;7.444;2023-01-28T01:36:47;3.40;99.90
31661;DHT22;18267;52.234;7.444;2023-01-28T01:39:13;3.40;99.90
31661;DHT22;18267;52.234;7.444;2023-01-28T01:41:43;3.50;99.90
31661;DHT22;18267;52.234;7.444;2023-01-28T01:47:17;3.50;99.90
31661;DHT22;18267;52.234;7.444;2023-01-28T01:49:44;3.60;99.90
31661;DHT22;18267;52.234;7.444;2023-01-28T01:52:14;3.50;99.90
31661;DHT22;18267;52.234;7.444;2023-01-28T01:54:44;3.50;99.90
31661;DHT22;18267;52.234;7.444;2023-01-28T01:57:37;3.50;99.90
31661;DHT22;18267;52.234;7.444;2023-01-28T02:00:06;3.60;99.90
31661;DHT22;18267;52.234;7.444;2023-01-28T02:02:37;3.50;99.90
31661;DHT22;18267;52.234;7.444;2023-01-28T02:05:19;3.50;99.90
31661;DHT22;18267;52.234;7.444;2023-01-28T02:08:05;3.30;99.90
31661;DHT22;18267;52.234;7.444;2023-01-28T02:11:05;2.90;99.90
31661;DHT22;18267;52.234;7.444;2023-01-28T02:13:59;2.90;99.90
31661;DHT22;18267;52.234;7.444;2023-01-28T02:16:47;3.00;99.90
31661;DHT22;18267;52.234;7.444;2023-01-28T02:20:09;3.10;99.90
31661;DHT22;18267;52.234;7.444;2023-01-28T02:23:20;2.90;99.90
31661;DHT22;18267;52.234;7.444;2023-01-28T02:29:26;2.90;99.90
31661;DHT22;18267;52.234;7.444;2023-01-28T02:35:34;3.10;99.90
31661;DHT22;18267;52.234;7.444;2023-01-28T02:38:10;3.00;99.90
31661;DHT22;18267;52.234;7.444;2023-01-28T02:40:49;2.90;99.90
31661;DHT22;18267;52.234;7.444;2023-01-28T02:43:39;2.90;99.90
31661;DHT22;18267;52.234;7.444;2023-01-28T02:49:00;3.00;99.90
31661;DHT22;18267;52.234;7.444;2023-01-28T02:51:32;2.80;99.90
31661;DHT22;18267;52.234;7.444;2023-01-28T02:54:30;2.70;99.90
31661;DHT22;18267;52.234;7.444;2023-01-28T03:05:36;2.80;99.90
31661;DHT22;18267;52.234;7.444;2023-01-28T03:08:04;2.80;99.90
31661;DHT22;18267;52.234;7.444;2023-01-28T03:10:52;2.80;99.90
31661;DHT22;18267;52.234;7.444;2023-01-28T03:13:40;2.80;99.90
31661;DHT22;18267;52.234;7.444;2023-01-28T03:16:25;2.70;99.90
31661;DHT22;18267;52.234;7.444;2023-01-28T03:19:10;2.80;99.90
31661;DHT22;18267;52.234;7.444;2023-01-28T03:21:57;2.90;99.90
31661;DHT22;18267;52.234;7.444;2023-01-28T03:24:49;3.10;99.90
31661;DHT22;18267;52.234;7.444;2023-01-28T03:27:51;3.20;99.90
31661;DHT22;18267;52.234;7.444;2023-01-28T03:31:07;3.20;99.90
31661;DHT22;18267;52.234;7.444;2023-01-28T03:33:53;2.90;99.90
31661;DHT22;18267;52.234;7.444;2023-01-28T03:36:38;3.00;99.90
31661;DHT22;18267;52.234;7.444;2023-01-28T03:39:15;2.90;99.90
31661;DHT22;18267;52.234;7.444;2023-01-28T03:41:41;2.80;99.90
31661;DHT22;18267;52.234;7.444;2023-01-28T03:44:07;2.80;99.90
31661;DHT22;18267;52.234;7.444;2023-01-28T03:46:51;2.90;99.90
31661;DHT22;18267;52.234;7.444;2023-01-28T03:49:17;2.90;99.90
31661;DHT22;18267;52.234;7.444;2023-01-28T03:51:42;3.10;99.90
31661;DHT22;18267;52.234;7.444;2023-01-28T03:54:09;3.20;99.90
31661;DHT22;18267;52.234;7.444;2023-01-28T03:56:34;3.10;99.90
31661;DHT22;18267;52.234;7.444;2023-01-28T03:59:02;3.20;99.90
31661;DHT22;18267;52.234;7.444;2023-01-28T04:01:28;3.20;99.90
31661;DHT22;18267;52.234;7.444;2023-01-28T04:03:54;3.20;99.90
31661;DHT22;18267;52.234;7.444;2023-01-28T04:06:19;3.10;99.90
31661;DHT22;18267;52.234;7.444;2023-01-28T04:08:45;2.90;99.90
31661;DHT22;18267;52.234;7.444;2023-01-28T04:11:17;2.90;99.90
31661;DHT22;18267;52.234;7.444;2023-01-28T04:13:45;2.80;99.90
31661;DHT22;18267;52.234;7.444;2023-01-28T04:16:12;2.80;99.90
31661;DHT22;18267;52.234;7.444;2023-01-28T04:18:37;3.00;99.90
31661;DHT22;18267;52.234;7.444;2023-01-28T04:21:03;3.00;99.90
31661;DHT22;18267;52.234;7.444;2023-01-28T04:23:29;3.10;99.90
31661;DHT22;18267;52.234;7.444;2023-01-28T04:25:54;3.10;99.90
31661;DHT22;18267;52.234;7.444;2023-01-28T04:28:20;3.00;99.90
31661;DHT22;18267;52.234;7.444;2023-01-28T04:30:46;3.10;99.90
31661;DHT22;18267;52.234;7.444;2023-01-28T04:33:11;3.10;99.90
31661;DHT22;18267;52.234;7.444;2023-01-28T04:35:37;2.80;99.90
31661;DHT22;18267;52.234;7.444;2023-01-28T04:38:03;2.60;99.90
31661;DHT22;18267;52.234;7.444;2023-01-28T04:40:28;2.50;99.90
31661;DHT22;18267;52.234;7.444;2023-01-28T04:42:54;2.50;99.90
31661;DHT22;18267;52.234;7.444;2023-01-28T04:45:21;2.30;99.90
31661;DHT22;18267;52.234;7.444;2023-01-28T04:47:46;2.20;99.90
31661;DHT22;18267;52.234;7.444;2023-01-28T04:50:12;2.20;99.90
31661;DHT22;18267;52.234;7.444;2023-01-28T04:52:38;2.30;99.90
31661;DHT22;18267;52.234;7.444;2023-01-28T04:55:04;2.30;99.90
31661;DHT22;18267;52.234;7.444;2023-01-28T04:57:30;2.10;99.90
31661;DHT22;18267;52.234;7.444;2023-01-28T04:59:55;2.10;99.90
31661;DHT22;18267;52.234;7.444;2023-01-28T05:02:21;2.30;99.90
31661;DHT22;18267;52.234;7.444;2023-01-28T05:04:46;2.50;99.90
31661;DHT22;18267;52.234;7.444;2023-01-28T05:07:12;2.60;99.90
31661;DHT22;18267;52.234;7.444;2023-01-28T05:09:37;2.70;99.90
31661;DHT22;18267;52.234;7.444;2023-01-28T05:12:03;2.80;99.90
31661;DHT22;18267;52.234;7.444;2023-01-28T05:14:29;2.70;99.90
31661;DHT22;18267;52.234;7.444;2023-01-28T05:16:54;2.40;99.90
31661;DHT22;18267;52.234;7.444;2023-01-28T05:19:20;2.30;99.90
31661;DHT22;18267;52.234;7.444;2023-01-28T05:21:45;2.40;99.90
31661;DHT22;18267;52.234;7.444;2023-01-28T05:24:11;2.40;99.90
31661;DHT22;18267;52.234;7.444;2023-01-28T05:26:37;2.50;99.90
31661;DHT22;18267;52.234;7.444;2023-01-28T05:29:03;2.60;99.90
31661;DHT22;18267;52.234;7.444;2023-01-28T05:31:28;2.60;99.90
31661;DHT22;18267;52.234;7.444;2023-01-28T05:33:54;2.40;99.90
31661;DHT22;18267;52.234;7.444;2023-01-28T05:36:19;2.30;99.90
31661;DHT22;18267;52.234;7.444;2023-01-28T05:38:45;2.40;99.90
31661;DHT22;18267;52.234;7.444;2023-01-28T05:41:11;2.20;99.90
31661;DHT22;18267;52.234;7.444;2023-01-28T05:43:36;2.00;99.90
31661;DHT22;18267;52.234;7.444;2023-01-28T05:46:02;1.90;99.90
31661;DHT22;18267;52.234;7.444;2023-01-28T05:48:28;2.10;99.90
31661;DHT22;18267;52.234;7.444;2023-01-28T05:50:53;2.30;99.90
31661;DHT22;18267;52.234;7.444;2023-01-28T05:53:20;2.30;99.90
31661;DHT22;18267;52.234;7.444;2023-01-28T05:55:50;2.30;99.90
31661;DHT22;18267;52.234;7.444;2023-01-28T05:58:18;2.20;99.90
31661;DHT22;18267;52.234;7.444;2023-01-28T06:00:43;2.20;99.90
31661;DHT22;18267;52.234;7.444;2023-01-28T06:03:09;2.40;99.90
31661;DHT22;18267;52.234;7.444;2023-01-28T06:05:35;2.60;99.90
31661;DHT22;18267;52.234;7.444;2023-01-28T06:08:00;2.80;99.90
31661;DHT22;18267;52.234;7.444;2023-01-28T06:10:26;2.60;99.90
31661;DHT22;18267;52.234;7.444;2023-01-28T06:12:51;2.40;99.90
31661;DHT22;18267;52.234;7.444;2023-01-28T06:15:17;2.20;99.90
31661;DHT22;18267;52.234;7.444;2023-01-28T06:17:42;2.00;99.90
31661;DHT22;18267;52.234;7.444;2023-01-28T06:20:08;2.00;99.90
31661;DHT22;18267;52.234;7.444;2023-01-28T06:22:34;2.10;99.90
31661;DHT22;18267;52.234;7.444;2023-01-28T06:25:00;2.20;99.90
31661;DHT22;18267;52.234;7.444;2023-01-28T06:27:25;2.30;99.90
31661;DHT22;18267;52.234;7.444;2023-01-28T06:29:52;2.50;99.90
31661;DHT22;18267;52.234;7.444;2023-01-28T06:32:17;2.60;99.90
31661;DHT22;18267;52.234;7.444;2023-01-28T06:34:43;2.70;99.90
31661;DHT22;18267;52.234;7.444;2023-01-28T06:37:14;2.70;99.90
31661;DHT22;18267;52.234;7.444;2023-01-28T06:39:40;2.60;99.90
31661;DHT22;18267;52.234;7.444;2023-01-28T06:42:06;2.50;99.90
31661;DHT22;18267;52.234;7.444;2023-01-28T06:44:31;2.20;99.90
31661;DHT22;18267;52.234;7.444;2023-01-28T06:46:57;2.10;99.90
31661;DHT22;18267;52.234;7.444;2023-01-28T06:49:22;2.20;99.90
31661;DHT22;18267;52.234;7.444;2023-01-28T06:51:48;2.20;99.90
31661;DHT22;18267;52.234;7.444;2023-01-28T06:54:14;2.30;99.90
31661;DHT22;18267;52.234;7.444;2023-01-28T06:56:40;2.40;99.90
31661;DHT22;18267;52.234;7.444;2023-01-28T06:59:06;2.50;99.90
31661;DHT22;18267;52.234;7.444;2023-01-28T07:01:32;2.50;99.90
31661;DHT22;18267;52.234;7.444;2023-01-28T07:03:58;2.50;99.90
31661;DHT22;18267;52.234;7.444;2023-01-28T07:06:23;2.50;99.90
31661;DHT22;18267;52.234;7.444;2023-01-28T07:08:49;2.60;99.90
31661;DHT22;18267;52.234;7.444;2023-01-28T07:11:15;2.60;99.90
31661;DHT22;18267;52.234;7.444;2023-01-28T07:13:41;2.70;99.90
31661;DHT22;18267;52.234;7.444;2023-01-28T07:16:07;2.90;99.90
31661;DHT22;18267;52.234;7.444;2023-01-28T07:18:33;2.90;99.90
31661;DHT22;18267;52.234;7.444;2023-01-28T07:20:59;2.90;99.90
31661;DHT22;18267;52.234;7.444;2023-01-28T07:23:25;3.00;99.90
31661;DHT22;18267;52.234;7.444;2023-01-28T07:25:50;3.00;99.90
31661;DHT22;18267;52.234;7.444;2023-01-28T07:28:16;3.00;99.90
31661;DHT22;18267;52.234;7.444;2023-01-28T07:30:48;3.20;99.90
31661;DHT22;18267;52.234;7.444;2023-01-28T07:33:13;3.20;99.90
31661;DHT22;18267;52.234;7.444;2023-01-28T07:35:39;3.10;99.90
31661;DHT22;18267;52.234;7.444;2023-01-28T07:38:05;2.90;99.90
31661;DHT22;18267;52.234;7.444;2023-01-28T07:40:30;2.90;99.90
31661;DHT22;18267;52.234;7.444;2023-01-28T07:42:56;3.00;99.90
31661;DHT22;18267;52.234;7.444;2023-01-28T07:45:23;2.90;99.90
31661;DHT22;18267;52.234;7.444;2023-01-28T07:47:54;3.00;99.90
31661;DHT22;18267;52.234;7.444;2023-01-28T07:50:20;3.00;99.90
31661;DHT22;18267;52.234;7.444;2023-01-28T07:52:45;3.10;99.90
31661;DHT22;18267;52.234;7.444;2023-01-28T07:55:11;3.30;99.90
31661;DHT22;18267;52.234;7.444;2023-01-28T07:57:48;3.40;99.90
31661;DHT22;18267;52.234;7.444;2023-01-28T08:00:14;3.30;99.90
31661;DHT22;18267;52.234;7.444;2023-01-28T08:02:59;3.00;99.90
31661;DHT22;18267;52.234;7.444;2023-01-28T08:05:47;2.70;99.90
31661;DHT22;18267;52.234;7.444;2023-01-28T08:08:14;2.50;99.90
31661;DHT22;18267;52.234;7.444;2023-01-28T08:10:44;2.40;99.90
31661;DHT22;18267;52.234;7.444;2023-01-28T08:13:11;2.30;99.90
31661;DHT22;18267;52.234;7.444;2023-01-28T08:15:44;2.30;99.90
31661;DHT22;18267;52.234;7.444;2023-01-28T08:18:11;2.30;99.90
31661;DHT22;18267;52.234;7.444;2023-01-28T08:21:06;2.50;99.90
31661;DHT22;18267;52.234;7.444;2023-01-28T08:23:32;2.70;99.90
31661;DHT22;18267;52.234;7.444;2023-01-28T08:25:59;2.60;99.90
31661;DHT22;18267;52.234;7.444;2023-01-28T08:28:25;2.40;99.90
31661;DHT22;18267;52.234;7.444;2023-01-28T08:30:59;2.30;99.90
31661;DHT22;18267;52.234;7.444;2023-01-28T08:33:32;2.20;99.90
31661;DHT22;18267;52.234;7.444;2023-01-28T08:36:01;2.20;99.90
31661;DHT22;18267;52.234;7.444;2023-01-28T08:38:27;2.10;99.90
31661;DHT22;18267;52.234;7.444;2023-01-28T08:41:02;2.00;99.90
31661;DHT22;18267;52.234;7.444;2023-01-28T08:43:41;2.00;99.90
31661;DHT22;18267;52.234;7.444;2023-01-28T08:46:13;2.10;99.90
31661;DHT22;18267;52.234;7.444;2023-01-28T08:48:42;2.00;99.90
31661;DHT22;18267;52.234;7.444;2023-01-28T08:51:08;1.90;99.90
31661;DHT22;18267;52.234;7.444;2023-01-28T08:53:34;2.00;99.90
31661;DHT22;18267;52.234;7.444;2023-01-28T08:56:10;2.10;99.90
31661;DHT22;18267;52.234;7.444;2023-01-28T08:58:36;2.20;99.90
31661;DHT22;18267;52.234;7.444;2023-01-28T09:01:06;2.30;99.90
31661;DHT22;18267;52.234;7.444;2023-01-28T09:03:32;2.40;99.90
31661;DHT22;18267;52.234;7.444;2023-01-28T09:06:14;2.30;99.90
31661;DHT22;18267;52.234;7.444;2023-01-28T09:08:41;2.30;99.90
31661;DHT22;18267;52.234;7.444;2023-01-28T09:11:16;2.30;99.90
31661;DHT22;18267;52.234;7.444;2023-01-28T09:13:42;2.40;99.90
31661;DHT22;18267;52.234;7.444;2023-01-28T09:16:08;2.50;99.90
31661;DHT22;18267;52.234;7.444;2023-01-28T09:18:34;2.70;99.90
31661;DHT22;18267;52.234;7.444;2023-01-28T09:21:04;2.90;99.90
31661;DHT22;18267;52.234;7.444;2023-01-28T09:23:32;3.20;99.90
31661;DHT22;18267;52.234;7.444;2023-01-28T09:26:02;3.40;99.90
31661;DHT22;18267;52.234;7.444;2023-01-28T09:28:29;3.40;99.90
31661;DHT22;18267;52.234;7.444;2023-01-28T09:31:08;3.50;99.90
31661;DHT22;18267;52.234;7.444;2023-01-28T09:33:36;3.60;99.90
31661;DHT22;18267;52.234;7.444;2023-01-28T09:36:04;3.70;99.90
31661;DHT22;18267;52.234;7.444;2023-01-28T09:38:30;3.70;99.90
31661;DHT22;18267;52.234;7.444;2023-01-28T09:40:57;3.70;99.90
31661;DHT22;18267;52.234;7.444;2023-01-28T09:46:11;3.50;99.90
31661;DHT22;18267;52.234;7.444;2023-01-28T09:48:44;3.40;99.90
31661;DHT22;18267;52.234;7.444;2023-01-28T09:51:29;3.50;99.90
31661;DHT22;18267;52.234;7.444;2023-01-28T09:54:10;3.70;99.90
31661;DHT22;18267;52.234;7.444;2023-01-28T09:56:41;3.80;99.90
31661;DHT22;18267;52.234;7.444;2023-01-28T09:59:16;3.90;99.90
31661;DHT22;18267;52.234;7.444;2023-01-28T10:07:39;3.80;99.90
31661;DHT22;18267;52.234;7.444;2023-01-28T10:10:21;3.70;99.90
31661;DHT22;18267;52.234;7.444;2023-01-28T10:13:19;3.80;99.90
31661;DHT22;18267;52.234;7.444;2023-01-28T10:18:40;3.80;99.90
31661;DHT22;18267;52.234;7.444;2023-01-28T10:21:33;3.80;99.90
31661;DHT22;18267;52.234;7.444;2023-01-28T10:24:16;3.90;99.90
31661;DHT22;18267;52.234;7.444;2023-01-28T10:26:43;3.80;99.90
31661;DHT22;18267;52.234;7.444;2023-01-28T10:29:27;3.90;99.90
31661;DHT22;18267;52.234;7.444;2023-01-28T10:32:06;4.10;99.90
31661;DHT22;18267;52.234;7.444;2023-01-28T10:34:37;4.20;99.90
31661;DHT22;18267;52.234;7.444;2023-01-28T10:37:03;4.30;99.90
31661;DHT22;18267;52.234;7.444;2023-01-28T10:39:29;4.40;99.90
31661;DHT22;18267;52.234;7.444;2023-01-28T10:41:54;4.40;99.90
31661;DHT22;18267;52.234;7.444;2023-01-28T10:44:41;4.50;99.90
31661;DHT22;18267;52.234;7.444;2023-01-28T10:47:32;4.70;99.90
31661;DHT22;18267;52.234;7.444;2023-01-28T10:49:59;4.80;99.90
31661;DHT22;18267;52.234;7.444;2023-01-28T10:52:25;4.80;99.90
31661;DHT22;18267;52.234;7.444;2023-01-28T10:55:01;4.70;99.90
31661;DHT22;18267;52.234;7.444;2023-01-28T10:57:28;4.60;99.90
31661;DHT22;18267;52.234;7.444;2023-01-28T10:59:54;4.60;99.90
31661;DHT22;18267;52.234;7.444;2023-01-28T11:02:30;4.60;99.90
31661;DHT22;18267;52.234;7.444;2023-01-28T11:05:05;4.50;99.90
31661;DHT22;18267;52.234;7.444;2023-01-28T11:07:31;4.50;99.90
31661;DHT22;18267;52.234;7.444;2023-01-28T11:09:57;4.50;99.90
31661;DHT22;18267;52.234;7.444;2023-01-28T11:12:27;4.40;99.90
31661;DHT22;18267;52.234;7.444;2023-01-28T11:14:59;4.50;99.90
31661;DHT22;18267;52.234;7.444;2023-01-28T11:17:27;4.70;99.90
31661;DHT22;18267;52.234;7.444;2023-01-28T11:19:55;4.60;99.90
31661;DHT22;18267;52.234;7.444;2023-01-28T11:24:55;4.60;99.90
31661;DHT22;18267;52.234;7.444;2023-01-28T11:27:26;4.60;99.90
31661;DHT22;18267;52.234;7.444;2023-01-28T11:29:57;4.60;99.90
31661;DHT22;18267;52.234;7.444;2023-01-28T11:32:28;4.60;99.90
31661;DHT22;18267;52.234;7.444;2023-01-28T11:34:55;4.50;99.90
31661;DHT22;18267;52.234;7.444;2023-01-28T11:37:26;4.70;99.90
31661;DHT22;18267;52.234;7.444;2023-01-28T11:40:08;4.70;99.90
31661;DHT22;18267;52.234;7.444;2023-01-28T11:42:38;4.80;99.90
31661;DHT22;18267;52.234;7.444;2023-01-28T11:45:17;4.70;99.90
31661;DHT22;18267;52.234;7.444;2023-01-28T11:50:38;4.60;99.90
31661;DHT22;18267;52.234;7.444;2023-01-28T12:08:21;4.30;99.90
31661;DHT22;18267;52.234;7.444;2023-01-28T12:28:54;4.90;99.90
31661;DHT22;18267;52.234;7.444;2023-01-28T12:34:31;5.10;99.90
31661;DHT22;18267;52.234;7.444;2023-01-28T12:42:52;5.40;99.90
31661;DHT22;18267;52.234;7.444;2023-01-28T12:45:29;5.50;99.90
31661;DHT22;18267;52.234;7.444;2023-01-28T12:48:05;5.60;99.90
31661;DHT22;18267;52.234;7.444;2023-01-28T12:53:30;5.60;99.90
31661;DHT22;18267;52.234;7.444;2023-01-28T12:56:11;5.70;99.90
31661;DHT22;18267;52.234;7.444;2023-01-28T12:58:54;5.70;99.90
31661;DHT22;18267;52.234;7.444;2023-01-28T13:01:28;5.60;99.90
31661;DHT22;18267;52.234;7.444;2023-01-28T13:04:07;5.60;99.90
31661;DHT22;18267;52.234;7.444;2023-01-28T13:06:45;5.70;99.90
31661;DHT22;18267;52.234;7.444;2023-01-28T13:09:20;5.60;99.90
31661;DHT22;18267;52.234;7.444;2023-01-28T13:11:50;5.70;99.90
31661;DHT22;18267;52.234;7.444;2023-01-28T13:14:17;5.70;99.90
31661;DHT22;18267;52.234;7.444;2023-01-28T13:16:43;5.50;99.90
31661;DHT22;18267;52.234;7.444;2023-01-28T13:19:22;5.40;99.90
31661;DHT22;18267;52.234;7.444;2023-01-28T13:21:48;5.50;99.90
31661;DHT22;18267;52.234;7.444;2023-01-28T13:26:45;5.60;99.90
31661;DHT22;18267;52.234;7.444;2023-01-28T13:31:44;5.70;99.90
31661;DHT22;18267;52.234;7.444;2023-01-28T13:36:59;5.70;99.90
31661;DHT22;18267;52.234;7.444;2023-01-28T13:39:26;5.70;99.90
31661;DHT22;18267;52.234;7.444;2023-01-28T13:44:29;5.50;99.90
31661;DHT22;18267;52.234;7.444;2023-01-28T13:49:44;5.60;99.90
31661;DHT22;18267;52.234;7.444;2023-01-28T13:54:52;5.40;99.90
31661;DHT22;18267;52.234;7.444;2023-01-28T14:03:19;5.50;99.90
31661;DHT22;18267;52.234;7.444;2023-01-28T14:06:07;5.40;99.90
31661;DHT22;18267;52.234;7.444;2023-01-28T14:16:57;5.50;99.90
31661;DHT22;18267;52.234;7.444;2023-01-28T14:19:31;5.50;99.90
31661;DHT22;18267;52.234;7.444;2023-01-28T14:21:58;5.60;99.90
31661;DHT22;18267;52.234;7.444;2023-01-28T14:24:24;5.60;99.90
31661;DHT22;18267;52.234;7.444;2023-01-28T14:26:59;5.60;99.90
31661;DHT22;18267;52.234;7.444;2023-01-28T14:29:40;5.70;99.90
31661;DHT22;18267;52.234;7.444;2023-01-28T14:32:15;5.60;99.90
31661;DHT22;18267;52.234;7.444;2023-01-28T14:34:42;5.50;99.90
31661;DHT22;18267;52.234;7.444;2023-01-28T14:37:14;5.50;99.90
31661;DHT22;18267;52.234;7.444;2023-01-28T14:39:55;5.50;99.90
31661;DHT22;18267;52.234;7.444;2023-01-28T14:42:35;5.50;99.90
31661;DHT22;18267;52.234;7.444;2023-01-28T14:50:54;5.50;99.90
31661;DHT22;18267;52.234;7.444;2023-01-28T14:53:29;5.50;99.90
31661;DHT22;18267;52.234;7.444;2023-01-28T14:58:30;5.60;99.90
31661;DHT22;18267;52.234;7.444;2023-01-28T15:00:58;5.50;99.90
31661;DHT22;18267;52.234;7.444;2023-01-28T15:03:25;5.40;99.90
31661;DHT22;18267;52.234;7.444;2023-01-28T15:06:05;5.50;99.90
31661;DHT22;18267;52.234;7.444;2023-01-28T15:08:31;5.40;99.90
31661;DHT22;18267;52.234;7.444;2023-01-28T15:10:57;5.30;99.90
31661;DHT22;18267;52.234;7.444;2023-01-28T15:13:27;5.30;99.90
31661;DHT22;18267;52.234;7.444;2023-01-28T15:15:53;5.30;99.90
31661;DHT22;18267;52.234;7.444;2023-01-28T15:18:35;5.30;99.90
31661;DHT22;18267;52.234;7.444;2023-01-28T15:21:02;5.30;99.90
31661;DHT22;18267;52.234;7.444;2023-01-28T15:23:32;5.30;99.90
31661;DHT22;18267;52.234;7.444;2023-01-28T15:25:58;5.30;99.90
31661;DHT22;18267;52.234;7.444;2023-01-28T15:28:29;5.30;99.90
31661;DHT22;18267;52.234;7.444;2023-01-28T15:30:56;5.20;99.90
31661;DHT22;18267;52.234;7.444;2023-01-28T15:33:23;5.10;99.90
31661;DHT22;18267;52.234;7.444;2023-01-28T15:35:54;5.10;99.90
31661;DHT22;18267;52.234;7.444;2023-01-28T15:38:21;5.00;99.90
31661;DHT22;18267;52.234;7.444;2023-01-28T15:40:53;4.90;99.90
31661;DHT22;18267;52.234;7.444;2023-01-28T15:43:25;4.90;99.90
31661;DHT22;18267;52.234;7.444;2023-01-28T15:45:53;4.90;99.90
31661;DHT22;18267;52.234;7.444;2023-01-28T15:48:27;4.90;99.90
31661;DHT22;18267;52.234;7.444;2023-01-28T15:51:05;4.90;99.90
31661;DHT22;18267;52.234;7.444;2023-01-28T15:53:35;4.90;99.90
31661;DHT22;18267;52.234;7.444;2023-01-28T15:56:09;4.80;99.90
31661;DHT22;18267;52.234;7.444;2023-01-28T15:58:36;4.70;99.90
31661;DHT22;18267;52.234;7.444;2023-01-28T16:03:36;4.60;99.90
31661;DHT22;18267;52.234;7.444;2023-01-28T16:06:09;4.60;99.90
31661;DHT22;18267;52.234;7.444;2023-01-28T16:11:01;4.50;99.90
31661;DHT22;18267;52.234;7.444;2023-01-28T16:13:32;4.60;99.90
31661;DHT22;18267;52.234;7.444;2023-01-28T16:16:00;4.50;99.90
31661;DHT22;18267;52.234;7.444;2023-01-28T16:18:44;4.50;99.90
31661;DHT22;18267;52.234;7.444;2023-01-28T16:21:25;4.60;99.90
31661;DHT22;18267;52.234;7.444;2023-01-28T16:24:24;4.50;99.90
31661;DHT22;18267;52.234;7.444;2023-01-28T16:27:01;4.50;99.90
31661;DHT22;18267;52.234;7.444;2023-01-28T16:29:28;4.30;99.90
31661;DHT22;18267;52.234;7.444;2023-01-28T16:31:55;4.30;99.90
31661;DHT22;18267;52.234;7.444;2023-01-28T16:34:24;4.20;99.90
31661;DHT22;18267;52.234;7.444;2023-01-28T16:36:51;4.10;99.90
31661;DHT22;18267;52.234;7.444;2023-01-28T16:39:17;4.20;99.90
31661;DHT22;18267;52.234;7.444;2023-01-28T16:41:45;4.30;99.90
31661;DHT22;18267;52.234;7.444;2023-01-28T16:44:15;4.30;99.90
31661;DHT22;18267;52.234;7.444;2023-01-28T16:46:41;4.20;99.90
31661;DHT22;18267;52.234;7.444;2023-01-28T16:49:08;4.10;99.90
31661;DHT22;18267;52.234;7.444;2023-01-28T16:51:35;4.00;99.90
31661;DHT22;18267;52.234;7.444;2023-01-28T16:54:02;3.90;99.90
31661;DHT22;18267;52.234;7.444;2023-01-28T16:56:28;3.90;99.90
31661;DHT22;18267;52.234;7.444;2023-01-28T16:58:55;3.90;99.90
31661;DHT22;18267;52.234;7.444;2023-01-28T17:01:21;3.90;99.90
31661;DHT22;18267;52.234;7.444;2023-01-28T17:03:47;3.80;99.90
31661;DHT22;18267;52.234;7.444;2023-01-28T17:06:17;3.80;99.90
31661;DHT22;18267;52.234;7.444;2023-01-28T17:08:43;3.80;99.90
31661;DHT22;18267;52.234;7.444;2023-01-28T17:11:10;3.70;99.90
31661;DHT22;18267;52.234;7.444;2023-01-28T17:13:35;3.70;99.90
31661;DHT22;18267;52.234;7.444;2023-01-28T17:16:02;3.70;99.90
31661;DHT22;18267;52.234;7.444;2023-01-28T17:18:28;3.70;99.90
31661;DHT22;18267;52.234;7.444;2023-01-28T17:20:53;3.70;99.90
31661;DHT22;18267;52.234;7.444;2023-01-28T17:23:19;3.70;99.90
31661;DHT22;18267;52.234;7.444;2023-01-28T17:25:49;3.70;99.90
31661;DHT22;18267;52.234;7.444;2023-01-28T17:28:14;3.50;99.90
31661;DHT22;18267;52.234;7.444;2023-01-28T17:30:40;3.40;99.90
31661;DHT22;18267;52.234;7.444;2023-01-28T17:33:07;3.40;99.90
31661;DHT22;18267;52.234;7.444;2023-01-28T17:35:33;3.30;99.90
31661;DHT22;18267;52.234;7.444;2023-01-28T17:38:00;3.40;99.90
31661;DHT22;18267;52.234;7.444;2023-01-28T17:40:26;3.40;99.90
31661;DHT22;18267;52.234;7.444;2023-01-28T17:42:53;3.50;99.90
31661;DHT22;18267;52.234;7.444;2023-01-28T17:45:19;3.50;99.90
31661;DHT22;18267;52.234;7.444;2023-01-28T17:47:45;3.50;99.90
31661;DHT22;18267;52.234;7.444;2023-01-28T17:50:10;3.50;99.90
31661;DHT22;18267;52.234;7.444;2023-01-28T17:52:36;3.50;99.90
31661;DHT22;18267;52.234;7.444;2023-01-28T17:55:02;3.50;99.90
31661;DHT22;18267;52.234;7.444;2023-01-28T17:57:28;3.40;99.90
31661;DHT22;18267;52.234;7.444;2023-01-28T17:59:53;3.40;99.90
31661;DHT22;18267;52.234;7.444;2023-01-28T18:02:19;3.40;99.90
31661;DHT22;18267;52.234;7.444;2023-01-28T18:04:45;3.30;99.90
31661;DHT22;18267;52.234;7.444;2023-01-28T18:07:12;3.10;99.90
31661;DHT22;18267;52.234;7.444;2023-01-28T18:09:42;3.10;99.90
31661;DHT22;18267;52.234;7.444;2023-01-28T18:12:10;3.20;99.90
31661;DHT22;18267;52.234;7.444;2023-01-28T18:14:37;3.10;99.90
31661;DHT22;18267;52.234;7.444;2023-01-28T18:17:03;3.20;99.90